sensor_id;sensor_type;location;lat;lon;timestamp;temperature;humidity
31967;DHT22;18496;52.042;6.812;2022-10-28T00:00:21;20.30;99.90
31967;DHT22;18496;52.042;6.812;2022-10-28T00:02:24;20.30;99.90
31967;DHT22;18496;52.042;6.812;2022-10-28T00:04:28;20.30;99.90
31967;DHT22;18496;52.042;6.812;2022-10-28T00:06:33;20.30;99.90
31967;DHT22;18496;52.042;6.812;2022-10-28T00:08:36;20.30;99.90
31967;DHT22;18496;52.042;6.812;2022-10-28T00:10:40;20.30;99.90
31967;DHT22;18496;52.042;6.812;2022-10-28T00:12:43;20.30;99.90
31967;DHT22;18496;52.042;6.812;2022-10-28T00:14:47;20.30;99.90
31967;DHT22;18496;52.042;6.812;2022-10-28T00:16:51;20.30;99.90
31967;DHT22;18496;52.042;6.812;2022-10-28T00:18:54;20.30;99.90
31967;DHT22;18496;52.042;6.812;2022-10-28T00:20:59;20.30;99.90
31967;DHT22;18496;52.042;6.812;2022-10-28T00:23:03;20.30;99.90
31967;DHT22;18496;52.042;6.812;2022-10-28T00:25:06;20.30;99.90
31967;DHT22;18496;52.042;6.812;2022-10-28T00:27:10;20.30;99.90
31967;DHT22;18496;52.042;6.812;2022-10-28T00:29:14;20.20;99.90
31967;DHT22;18496;52.042;6.812;2022-10-28T00:31:19;20.20;99.90
31967;DHT22;18496;52.042;6.812;2022-10-28T00:33:23;20.20;99.90
31967;DHT22;18496;52.042;6.812;2022-10-28T00:35:26;20.10;99.90
31967;DHT22;18496;52.042;6.812;2022-10-28T00:37:30;20.10;99.90
31967;DHT22;18496;52.042;6.812;2022-10-28T00:39:33;20.00;99.90
31967;DHT22;18496;52.042;6.812;2022-10-28T00:41:38;20.00;99.90
31967;DHT22;18496;52.042;6.812;2022-10-28T00:43:43;19.90;99.90
31967;DHT22;18496;52.042;6.812;2022-10-28T00:45:47;19.90;99.90
31967;DHT22;18496;52.042;6.812;2022-10-28T00:47:53;19.90;99.90
31967;DHT22;18496;52.042;6.812;2022-10-28T00:50:02;19.80;99.90
31967;DHT22;18496;52.042;6.812;2022-10-28T00:52:08;19.80;99.90
31967;DHT22;18496;52.042;6.812;2022-10-28T00:54:12;19.80;99.90
31967;DHT22;18496;52.042;6.812;2022-10-28T00:56:16;19.90;99.90
31967;DHT22;18496;52.042;6.812;2022-10-28T00:58:21;19.90;99.90
31967;DHT22;18496;52.042;6.812;2022-10-28T01:00:25;19.80;99.90
31967;DHT22;18496;52.042;6.812;2022-10-28T01:02:28;19.80;99.90
31967;DHT22;18496;52.042;6.812;2022-10-28T01:04:32;19.80;99.90
31967;DHT22;18496;52.042;6.812;2022-10-28T01:06:36;19.70;99.90
31967;DHT22;18496;52.042;6.812;2022-10-28T01:08:40;19.70;99.90
31967;DHT22;18496;52.042;6.812;2022-10-28T01:15:03;19.60;99.90
31967;DHT22;18496;52.042;6.812;2022-10-28T01:19:30;19.50;99.90
31967;DHT22;18496;52.042;6.812;2022-10-28T01:21:42;19.40;99.90
31967;DHT22;18496;52.042;6.812;2022-10-28T01:30:40;19.30;99.90
31967;DHT22;18496;52.042;6.812;2022-10-28T01:46:07;19.00;99.90
31967;DHT22;18496;52.042;6.812;2022-10-28T01:48:14;18.90;99.90
31967;DHT22;18496;52.042;6.812;2022-10-28T01:50:29;18.90;99.90
31967;DHT22;18496;52.042;6.812;2022-10-28T01:52:34;18.90;99.90
31967;DHT22;18496;52.042;6.812;2022-10-28T01:54:41;18.80;99.90
31967;DHT22;18496;52.042;6.812;2022-10-28T01:56:46;18.70;99.90
31967;DHT22;18496;52.042;6.812;2022-10-28T01:58:51;18.70;99.90
31967;DHT22;18496;52.042;6.812;2022-10-28T02:00:56;18.80;99.90
31967;DHT22;18496;52.042;6.812;2022-10-28T02:03:05;18.70;99.90
31967;DHT22;18496;52.042;6.812;2022-10-28T02:07:31;18.70;99.90
31967;DHT22;18496;52.042;6.812;2022-10-28T02:22:53;18.60;99.90
31967;DHT22;18496;52.042;6.812;2022-10-28T02:25:08;18.60;99.90
31967;DHT22;18496;52.042;6.812;2022-10-28T02:27:16;18.60;99.90
31967;DHT22;18496;52.042;6.812;2022-10-28T02:31:41;18.60;99.90
31967;DHT22;18496;52.042;6.812;2022-10-28T02:33:49;18.60;99.90
31967;DHT22;18496;52.042;6.812;2022-10-28T02:35:54;18.60;99.90
31967;DHT22;18496;52.042;6.812;2022-10-28T02:38:00;18.70;99.90
31967;DHT22;18496;52.042;6.812;2022-10-28T02:40:05;18.70;99.90
31967;DHT22;18496;52.042;6.812;2022-10-28T02:42:15;18.70;99.90
31967;DHT22;18496;52.042;6.812;2022-10-28T02:44:23;18.70;99.90
31967;DHT22;18496;52.042;6.812;2022-10-28T02:46:28;18.80;99.90
31967;DHT22;18496;52.042;6.812;2022-10-28T02:48:41;18.80;99.90
31967;DHT22;18496;52.042;6.812;2022-10-28T02:50:47;18.80;99.90
31967;DHT22;18496;52.042;6.812;2022-10-28T02:52:53;18.80;99.90
31967;DHT22;18496;52.042;6.812;2022-10-28T02:54:58;18.90;99.90
31967;DHT22;18496;52.042;6.812;2022-10-28T02:57:15;18.90;99.90
31967;DHT22;18496;52.042;6.812;2022-10-28T02:59:20;18.90;99.90
31967;DHT22;18496;52.042;6.812;2022-10-28T03:01:26;18.90;99.90
31967;DHT22;18496;52.042;6.812;2022-10-28T03:03:29;18.90;99.90
31967;DHT22;18496;52.042;6.812;2022-10-28T03:05:33;18.90;99.90
31967;DHT22;18496;52.042;6.812;2022-10-28T03:07:36;18.90;99.90
31967;DHT22;18496;52.042;6.812;2022-10-28T03:09:40;18.90;99.90
31967;DHT22;18496;52.042;6.812;2022-10-28T03:11:43;18.90;99.90
31967;DHT22;18496;52.042;6.812;2022-10-28T03:13:47;18.90;99.90
31967;DHT22;18496;52.042;6.812;2022-10-28T03:15:50;18.90;99.90
31967;DHT22;18496;52.042;6.812;2022-10-28T03:17:54;18.90;99.90
31967;DHT22;18496;52.042;6.812;2022-10-28T03:19:57;18.80;99.90
31967;DHT22;18496;52.042;6.812;2022-10-28T03:22:01;18.90;99.90
31967;DHT22;18496;52.042;6.812;2022-10-28T03:24:05;18.90;99.90
31967;DHT22;18496;52.042;6.812;2022-10-28T03:26:08;18.80;99.90
31967;DHT22;18496;52.042;6.812;2022-10-28T03:28:14;18.80;99.90
31967;DHT22;18496;52.042;6.812;2022-10-28T03:30:18;18.80;99.90
31967;DHT22;18496;52.042;6.812;2022-10-28T03:32:21;18.80;99.90
31967;DHT22;18496;52.042;6.812;2022-10-28T03:34:25;18.80;99.90
31967;DHT22;18496;52.042;6.812;2022-10-28T03:36:28;18.80;99.90
31967;DHT22;18496;52.042;6.812;2022-10-28T03:38:32;18.70;99.90
31967;DHT22;18496;52.042;6.812;2022-10-28T03:40:35;18.70;99.90
31967;DHT22;18496;52.042;6.812;2022-10-28T03:42:39;18.70;99.90
31967;DHT22;18496;52.042;6.812;2022-10-28T03:44:43;18.70;99.90
31967;DHT22;18496;52.042;6.812;2022-10-28T03:46:47;18.70;99.90
31967;DHT22;18496;52.042;6.812;2022-10-28T03:48:50;18.70;99.90
31967;DHT22;18496;52.042;6.812;2022-10-28T03:50:54;18.70;99.90
31967;DHT22;18496;52.042;6.812;2022-10-28T03:52:58;18.70;99.90
31967;DHT22;18496;52.042;6.812;2022-10-28T03:55:01;18.70;99.90
31967;DHT22;18496;52.042;6.812;2022-10-28T03:57:05;18.70;99.90
31967;DHT22;18496;52.042;6.812;2022-10-28T03:59:08;18.70;99.90
31967;DHT22;18496;52.042;6.812;2022-10-28T04:01:12;18.70;99.90
31967;DHT22;18496;52.042;6.812;2022-10-28T04:03:16;18.70;99.90
31967;DHT22;18496;52.042;6.812;2022-10-28T04:05:23;18.70;99.90
31967;DHT22;18496;52.042;6.812;2022-10-28T04:07:26;18.70;99.90
31967;DHT22;18496;52.042;6.812;2022-10-28T04:09:32;18.70;99.90
31967;DHT22;18496;52.042;6.812;2022-10-28T04:11:36;18.70;99.90
31967;DHT22;18496;52.042;6.812;2022-10-28T04:13:39;18.60;99.90
31967;DHT22;18496;52.042;6.812;2022-10-28T04:15:43;18.70;99.90
31967;DHT22;18496;52.042;6.812;2022-10-28T04:17:47;18.60;99.90
31967;DHT22;18496;52.042;6.812;2022-10-28T04:19:50;18.70;99.90
31967;DHT22;18496;52.042;6.812;2022-10-28T04:21:54;18.70;99.90
31967;DHT22;18496;52.042;6.812;2022-10-28T04:23:57;18.70;99.90
31967;DHT22;18496;52.042;6.812;2022-10-28T04:26:01;18.70;99.90
31967;DHT22;18496;52.042;6.812;2022-10-28T04:28:04;18.70;99.90
31967;DHT22;18496;52.042;6.812;2022-10-28T04:30:08;18.70;99.90
31967;DHT22;18496;52.042;6.812;2022-10-28T04:32:12;18.70;99.90
31967;DHT22;18496;52.042;6.812;2022-10-28T04:34:16;18.70;99.90
31967;DHT22;18496;52.042;6.812;2022-10-28T04:36:19;18.70;99.90
31967;DHT22;18496;52.042;6.812;2022-10-28T04:38:23;18.60;99.90
31967;DHT22;18496;52.042;6.812;2022-10-28T04:40:26;18.60;99.90
31967;DHT22;18496;52.042;6.812;2022-10-28T04:42:30;18.60;99.90
31967;DHT22;18496;52.042;6.812;2022-10-28T04:44:33;18.50;99.90
31967;DHT22;18496;52.042;6.812;2022-10-28T04:46:37;18.50;99.90
31967;DHT22;18496;52.042;6.812;2022-10-28T04:48:41;18.50;99.90
31967;DHT22;18496;52.042;6.812;2022-10-28T04:50:44;18.50;99.90
31967;DHT22;18496;52.042;6.812;2022-10-28T04:52:48;18.50;99.90
31967;DHT22;18496;52.042;6.812;2022-10-28T04:54:51;18.60;99.90
31967;DHT22;18496;52.042;6.812;2022-10-28T04:56:55;18.50;99.90
31967;DHT22;18496;52.042;6.812;2022-10-28T04:58:58;18.50;99.90
31967;DHT22;18496;52.042;6.812;2022-10-28T05:01:06;18.60;99.90
31967;DHT22;18496;52.042;6.812;2022-10-28T05:03:09;18.60;99.90
31967;DHT22;18496;52.042;6.812;2022-10-28T05:05:13;18.60;99.90
31967;DHT22;18496;52.042;6.812;2022-10-28T05:07:16;18.60;99.90
31967;DHT22;18496;52.042;6.812;2022-10-28T05:09:20;18.60;99.90
31967;DHT22;18496;52.042;6.812;2022-10-28T05:11:23;18.60;99.90
31967;DHT22;18496;52.042;6.812;2022-10-28T05:13:27;18.60;99.90
31967;DHT22;18496;52.042;6.812;2022-10-28T05:15:31;18.60;99.90
31967;DHT22;18496;52.042;6.812;2022-10-28T05:17:34;18.60;99.90
31967;DHT22;18496;52.042;6.812;2022-10-28T05:19:38;18.60;99.90
31967;DHT22;18496;52.042;6.812;2022-10-28T05:21:41;18.60;99.90
31967;DHT22;18496;52.042;6.812;2022-10-28T05:23:45;18.60;99.90
31967;DHT22;18496;52.042;6.812;2022-10-28T05:25:49;18.60;99.90
31967;DHT22;18496;52.042;6.812;2022-10-28T05:27:56;18.50;99.90
31967;DHT22;18496;52.042;6.812;2022-10-28T05:30:00;18.60;99.90
31967;DHT22;18496;52.042;6.812;2022-10-28T05:32:04;18.60;99.90
31967;DHT22;18496;52.042;6.812;2022-10-28T05:34:07;18.60;99.90
31967;DHT22;18496;52.042;6.812;2022-10-28T05:36:11;18.50;99.90
31967;DHT22;18496;52.042;6.812;2022-10-28T05:38:14;18.50;99.90
31967;DHT22;18496;52.042;6.812;2022-10-28T05:40:18;18.40;99.90
31967;DHT22;18496;52.042;6.812;2022-10-28T05:42:21;18.50;99.90
31967;DHT22;18496;52.042;6.812;2022-10-28T05:44:25;18.50;99.90
31967;DHT22;18496;52.042;6.812;2022-10-28T05:46:28;18.50;99.90
31967;DHT22;18496;52.042;6.812;2022-10-28T05:48:32;18.50;99.90
31967;DHT22;18496;52.042;6.812;2022-10-28T05:50:35;18.50;99.90
31967;DHT22;18496;52.042;6.812;2022-10-28T05:52:39;18.50;99.90
31967;DHT22;18496;52.042;6.812;2022-10-28T05:54:43;18.50;99.90
31967;DHT22;18496;52.042;6.812;2022-10-28T05:56:46;18.50;99.90
31967;DHT22;18496;52.042;6.812;2022-10-28T05:58:50;18.50;99.90
31967;DHT22;18496;52.042;6.812;2022-10-28T06:00:53;18.50;99.90
31967;DHT22;18496;52.042;6.812;2022-10-28T06:03:01;18.40;99.90
31967;DHT22;18496;52.042;6.812;2022-10-28T06:05:05;18.40;99.90
31967;DHT22;18496;52.042;6.812;2022-10-28T06:07:08;18.40;99.90
31967;DHT22;18496;52.042;6.812;2022-10-28T06:09:12;18.30;99.90
31967;DHT22;18496;52.042;6.812;2022-10-28T06:11:15;18.30;99.90
31967;DHT22;18496;52.042;6.812;2022-10-28T06:13:19;18.30;99.90
31967;DHT22;18496;52.042;6.812;2022-10-28T06:15:23;18.30;99.90
31967;DHT22;18496;52.042;6.812;2022-10-28T06:17:26;18.30;99.90
31967;DHT22;18496;52.042;6.812;2022-10-28T06:19:30;18.30;99.90
31967;DHT22;18496;52.042;6.812;2022-10-28T06:21:33;18.30;99.90
31967;DHT22;18496;52.042;6.812;2022-10-28T06:23:37;18.30;99.90
31967;DHT22;18496;52.042;6.812;2022-10-28T06:25:40;18.30;99.90
31967;DHT22;18496;52.042;6.812;2022-10-28T06:27:44;18.30;99.90
31967;DHT22;18496;52.042;6.812;2022-10-28T06:29:47;18.30;99.90
31967;DHT22;18496;52.042;6.812;2022-10-28T06:31:51;18.30;99.90
31967;DHT22;18496;52.042;6.812;2022-10-28T06:33:55;18.30;99.90
31967;DHT22;18496;52.042;6.812;2022-10-28T06:36:00;18.30;99.90
31967;DHT22;18496;52.042;6.812;2022-10-28T06:38:03;18.30;99.90
31967;DHT22;18496;52.042;6.812;2022-10-28T06:40:07;18.30;99.90
31967;DHT22;18496;52.042;6.812;2022-10-28T06:42:11;18.30;99.90
31967;DHT22;18496;52.042;6.812;2022-10-28T06:44:14;18.30;99.90
31967;DHT22;18496;52.042;6.812;2022-10-28T06:46:18;18.30;99.90
31967;DHT22;18496;52.042;6.812;2022-10-28T06:48:21;18.30;99.90
31967;DHT22;18496;52.042;6.812;2022-10-28T06:50:25;18.40;99.90
31967;DHT22;18496;52.042;6.812;2022-10-28T06:52:29;18.40;99.90
31967;DHT22;18496;52.042;6.812;2022-10-28T06:54:33;18.40;99.90
31967;DHT22;18496;52.042;6.812;2022-10-28T06:56:36;18.40;99.90
31967;DHT22;18496;52.042;6.812;2022-10-28T06:58:40;18.40;99.90
31967;DHT22;18496;52.042;6.812;2022-10-28T07:00:43;18.40;99.90
31967;DHT22;18496;52.042;6.812;2022-10-28T07:02:51;18.40;99.90
31967;DHT22;18496;52.042;6.812;2022-10-28T07:04:54;18.40;99.90
31967;DHT22;18496;52.042;6.812;2022-10-28T07:06:58;18.40;99.90
31967;DHT22;18496;52.042;6.812;2022-10-28T07:09:01;18.30;99.90
31967;DHT22;18496;52.042;6.812;2022-10-28T07:11:05;18.40;99.90
31967;DHT22;18496;52.042;6.812;2022-10-28T07:13:08;18.40;99.90
31967;DHT22;18496;52.042;6.812;2022-10-28T07:15:12;18.30;99.90
31967;DHT22;18496;52.042;6.812;2022-10-28T07:17:15;18.30;99.90
31967;DHT22;18496;52.042;6.812;2022-10-28T07:19:19;18.30;99.90
31967;DHT22;18496;52.042;6.812;2022-10-28T07:21:22;18.30;99.90
31967;DHT22;18496;52.042;6.812;2022-10-28T07:23:30;18.30;99.90
31967;DHT22;18496;52.042;6.812;2022-10-28T07:25:35;18.40;99.90
31967;DHT22;18496;52.042;6.812;2022-10-28T07:27:38;18.40;99.90
31967;DHT22;18496;52.042;6.812;2022-10-28T07:29:42;18.40;99.90
31967;DHT22;18496;52.042;6.812;2022-10-28T07:31:45;18.40;99.90
31967;DHT22;18496;52.042;6.812;2022-10-28T07:33:52;18.50;99.90
31967;DHT22;18496;52.042;6.812;2022-10-28T07:35:56;18.50;99.90
31967;DHT22;18496;52.042;6.812;2022-10-28T07:37:59;18.50;99.90
31967;DHT22;18496;52.042;6.812;2022-10-28T07:40:03;18.50;99.90
31967;DHT22;18496;52.042;6.812;2022-10-28T07:42:07;18.50;99.90
31967;DHT22;18496;52.042;6.812;2022-10-28T07:44:10;18.50;99.90
31967;DHT22;18496;52.042;6.812;2022-10-28T07:46:15;18.50;99.90
31967;DHT22;18496;52.042;6.812;2022-10-28T07:48:18;18.60;99.90
31967;DHT22;18496;52.042;6.812;2022-10-28T07:50:22;18.60;99.90
31967;DHT22;18496;52.042;6.812;2022-10-28T07:52:25;18.60;99.90
31967;DHT22;18496;52.042;6.812;2022-10-28T07:54:29;18.60;99.90
31967;DHT22;18496;52.042;6.812;2022-10-28T07:56:34;18.60;99.90
31967;DHT22;18496;52.042;6.812;2022-10-28T07:58:37;18.60;99.90
31967;DHT22;18496;52.042;6.812;2022-10-28T08:00:41;18.60;99.90
31967;DHT22;18496;52.042;6.812;2022-10-28T08:02:45;18.60;99.90
31967;DHT22;18496;52.042;6.812;2022-10-28T08:04:48;18.60;99.90
31967;DHT22;18496;52.042;6.812;2022-10-28T08:06:52;18.70;99.90
31967;DHT22;18496;52.042;6.812;2022-10-28T08:08:56;18.70;99.90
31967;DHT22;18496;52.042;6.812;2022-10-28T08:11:07;18.70;99.90
31967;DHT22;18496;52.042;6.812;2022-10-28T08:13:10;18.70;99.90
31967;DHT22;18496;52.042;6.812;2022-10-28T08:15:14;18.70;99.90
31967;DHT22;18496;52.042;6.812;2022-10-28T08:17:20;18.70;99.90
31967;DHT22;18496;52.042;6.812;2022-10-28T08:19:24;18.80;99.90
31967;DHT22;18496;52.042;6.812;2022-10-28T08:21:27;18.80;99.90
31967;DHT22;18496;52.042;6.812;2022-10-28T08:23:31;18.80;99.90
31967;DHT22;18496;52.042;6.812;2022-10-28T08:25:35;18.80;99.90
31967;DHT22;18496;52.042;6.812;2022-10-28T08:27:39;18.80;99.90
31967;DHT22;18496;52.042;6.812;2022-10-28T08:29:44;18.90;99.90
31967;DHT22;18496;52.042;6.812;2022-10-28T08:31:47;18.90;99.90
31967;DHT22;18496;52.042;6.812;2022-10-28T08:33:51;18.90;99.90
31967;DHT22;18496;52.042;6.812;2022-10-28T08:35:54;18.90;99.90
31967;DHT22;18496;52.042;6.812;2022-10-28T08:37:58;19.00;99.90
31967;DHT22;18496;52.042;6.812;2022-10-28T08:40:02;19.00;99.90
31967;DHT22;18496;52.042;6.812;2022-10-28T08:42:20;19.00;99.90
31967;DHT22;18496;52.042;6.812;2022-10-28T08:49:11;19.10;99.90
31967;DHT22;18496;52.042;6.812;2022-10-28T08:51:17;19.20;99.90
31967;DHT22;18496;52.042;6.812;2022-10-28T08:53:28;19.20;99.90
31967;DHT22;18496;52.042;6.812;2022-10-28T08:55:40;19.20;99.90
31967;DHT22;18496;52.042;6.812;2022-10-28T08:57:47;19.30;99.90
31967;DHT22;18496;52.042;6.812;2022-10-28T08:59:52;19.30;99.90
31967;DHT22;18496;52.042;6.812;2022-10-28T09:01:57;19.40;99.90
31967;DHT22;18496;52.042;6.812;2022-10-28T09:04:03;19.40;99.90
31967;DHT22;18496;52.042;6.812;2022-10-28T09:06:08;19.50;99.90
31967;DHT22;18496;52.042;6.812;2022-10-28T09:08:20;19.50;99.90
31967;DHT22;18496;52.042;6.812;2022-10-28T09:12:40;19.60;99.90
31967;DHT22;18496;52.042;6.812;2022-10-28T09:14:59;19.70;99.90
31967;DHT22;18496;52.042;6.812;2022-10-28T09:17:15;19.80;99.90
31967;DHT22;18496;52.042;6.812;2022-10-28T09:21:39;19.90;99.90
31967;DHT22;18496;52.042;6.812;2022-10-28T09:23:48;19.90;99.90
31967;DHT22;18496;52.042;6.812;2022-10-28T09:26:02;20.00;99.90
31967;DHT22;18496;52.042;6.812;2022-10-28T09:28:23;20.00;99.90
31967;DHT22;18496;52.042;6.812;2022-10-28T09:30:31;20.10;99.90
31967;DHT22;18496;52.042;6.812;2022-10-28T09:32:41;20.20;99.90
31967;DHT22;18496;52.042;6.812;2022-10-28T09:34:48;20.20;99.90
31967;DHT22;18496;52.042;6.812;2022-10-28T09:36:54;20.20;99.90
31967;DHT22;18496;52.042;6.812;2022-10-28T09:39:00;20.20;99.90
31967;DHT22;18496;52.042;6.812;2022-10-28T09:43:31;20.30;99.90
31967;DHT22;18496;52.042;6.812;2022-10-28T09:45:36;20.30;99.90
31967;DHT22;18496;52.042;6.812;2022-10-28T09:47:43;20.30;99.90
31967;DHT22;18496;52.042;6.812;2022-10-28T09:49:48;20.30;99.90
31967;DHT22;18496;52.042;6.812;2022-10-28T09:54:00;20.40;99.90
31967;DHT22;18496;52.042;6.812;2022-10-28T09:56:04;20.30;99.90
31967;DHT22;18496;52.042;6.812;2022-10-28T09:58:09;20.40;99.90
31967;DHT22;18496;52.042;6.812;2022-10-28T10:00:16;20.40;99.90
31967;DHT22;18496;52.042;6.812;2022-10-28T10:02:25;20.50;99.90
31967;DHT22;18496;52.042;6.812;2022-10-28T10:04:29;20.50;99.90
31967;DHT22;18496;52.042;6.812;2022-10-28T10:06:38;20.50;99.90
31967;DHT22;18496;52.042;6.812;2022-10-28T10:08:45;20.50;99.90
31967;DHT22;18496;52.042;6.812;2022-10-28T10:12:54;20.70;99.90
31967;DHT22;18496;52.042;6.812;2022-10-28T10:14:59;20.80;99.90
31967;DHT22;18496;52.042;6.812;2022-10-28T10:17:04;20.90;99.90
31967;DHT22;18496;52.042;6.812;2022-10-28T10:19:08;21.00;99.90
31967;DHT22;18496;52.042;6.812;2022-10-28T10:21:13;21.10;99.90
31967;DHT22;18496;52.042;6.812;2022-10-28T10:25:26;21.20;99.90
31967;DHT22;18496;52.042;6.812;2022-10-28T10:27:32;21.30;99.90
31967;DHT22;18496;52.042;6.812;2022-10-28T10:29:36;21.30;99.90
31967;DHT22;18496;52.042;6.812;2022-10-28T10:31:46;21.40;99.90
31967;DHT22;18496;52.042;6.812;2022-10-28T10:33:51;21.50;99.90
31967;DHT22;18496;52.042;6.812;2022-10-28T10:36:16;21.50;99.90
31967;DHT22;18496;52.042;6.812;2022-10-28T10:38:19;21.60;99.90
31967;DHT22;18496;52.042;6.812;2022-10-28T10:40:24;21.60;99.90
31967;DHT22;18496;52.042;6.812;2022-10-28T10:42:28;21.70;99.90
31967;DHT22;18496;52.042;6.812;2022-10-28T10:44:32;21.70;99.90
31967;DHT22;18496;52.042;6.812;2022-10-28T10:46:36;21.70;99.90
31967;DHT22;18496;52.042;6.812;2022-10-28T10:48:40;21.80;99.90
31967;DHT22;18496;52.042;6.812;2022-10-28T10:50:47;21.80;99.90
31967;DHT22;18496;52.042;6.812;2022-10-28T10:52:53;21.80;99.90
31967;DHT22;18496;52.042;6.812;2022-10-28T10:55:00;21.90;99.90
31967;DHT22;18496;52.042;6.812;2022-10-28T10:57:07;21.90;99.90
31967;DHT22;18496;52.042;6.812;2022-10-28T11:01:26;22.10;99.90
31967;DHT22;18496;52.042;6.812;2022-10-28T11:03:34;22.10;99.90
31967;DHT22;18496;52.042;6.812;2022-10-28T11:05:39;22.20;99.90
31967;DHT22;18496;52.042;6.812;2022-10-28T11:07:50;22.20;99.90
31967;DHT22;18496;52.042;6.812;2022-10-28T11:09:54;22.30;99.90
31967;DHT22;18496;52.042;6.812;2022-10-28T11:11:58;22.20;99.90
31967;DHT22;18496;52.042;6.812;2022-10-28T11:14:19;22.30;99.90
31967;DHT22;18496;52.042;6.812;2022-10-28T11:16:26;22.30;99.90
31967;DHT22;18496;52.042;6.812;2022-10-28T11:18:37;22.40;99.90
31967;DHT22;18496;52.042;6.812;2022-10-28T11:20:57;22.50;99.90
31967;DHT22;18496;52.042;6.812;2022-10-28T11:23:12;22.60;99.90
31967;DHT22;18496;52.042;6.812;2022-10-28T11:25:36;22.60;99.90
31967;DHT22;18496;52.042;6.812;2022-10-28T11:30:04;22.70;99.90
31967;DHT22;18496;52.042;6.812;2022-10-28T11:32:15;22.80;99.90
31967;DHT22;18496;52.042;6.812;2022-10-28T11:36:45;22.90;99.90
31967;DHT22;18496;52.042;6.812;2022-10-28T11:41:08;23.00;99.90
31967;DHT22;18496;52.042;6.812;2022-10-28T12:02:34;23.20;99.90
31967;DHT22;18496;52.042;6.812;2022-10-28T12:04:53;23.20;99.90
31967;DHT22;18496;52.042;6.812;2022-10-28T12:09:24;23.30;99.90
31967;DHT22;18496;52.042;6.812;2022-10-28T12:14:04;23.40;99.90
31967;DHT22;18496;52.042;6.812;2022-10-28T12:20:40;23.50;99.90
31967;DHT22;18496;52.042;6.812;2022-10-28T12:22:54;23.60;99.90
31967;DHT22;18496;52.042;6.812;2022-10-28T12:25:00;23.60;99.90
31967;DHT22;18496;52.042;6.812;2022-10-28T12:27:07;23.60;99.90
31967;DHT22;18496;52.042;6.812;2022-10-28T12:31:19;23.60;99.90
31967;DHT22;18496;52.042;6.812;2022-10-28T12:33:38;23.70;99.90
31967;DHT22;18496;52.042;6.812;2022-10-28T12:35:50;23.70;99.90
31967;DHT22;18496;52.042;6.812;2022-10-28T12:38:31;23.70;99.90
31967;DHT22;18496;52.042;6.812;2022-10-28T12:40:30;23.70;99.90
31967;DHT22;18496;52.042;6.812;2022-10-28T12:42:38;23.70;99.90
31967;DHT22;18496;52.042;6.812;2022-10-28T12:44:44;23.70;99.90
31967;DHT22;18496;52.042;6.812;2022-10-28T12:51:42;23.80;99.90
31967;DHT22;18496;52.042;6.812;2022-10-28T12:53:57;23.80;99.90
31967;DHT22;18496;52.042;6.812;2022-10-28T12:56:05;23.90;99.90
31967;DHT22;18496;52.042;6.812;2022-10-28T12:58:18;23.90;99.90
31967;DHT22;18496;52.042;6.812;2022-10-28T13:00:31;23.90;99.90
31967;DHT22;18496;52.042;6.812;2022-10-28T13:02:38;23.90;99.90
31967;DHT22;18496;52.042;6.812;2022-10-28T13:04:43;23.90;99.90
31967;DHT22;18496;52.042;6.812;2022-10-28T13:21:58;23.70;99.90
31967;DHT22;18496;52.042;6.812;2022-10-28T13:26:27;23.70;99.90
31967;DHT22;18496;52.042;6.812;2022-10-28T13:28:32;23.70;99.90
31967;DHT22;18496;52.042;6.812;2022-10-28T13:30:36;23.70;99.90
31967;DHT22;18496;52.042;6.812;2022-10-28T13:32:39;23.70;99.70
31967;DHT22;18496;52.042;6.812;2022-10-28T13:34:43;23.70;99.70
31967;DHT22;18496;52.042;6.812;2022-10-28T13:36:56;23.70;99.80
31967;DHT22;18496;52.042;6.812;2022-10-28T13:39:02;23.70;99.90
31967;DHT22;18496;52.042;6.812;2022-10-28T13:41:08;23.70;99.90
31967;DHT22;18496;52.042;6.812;2022-10-28T13:43:18;23.70;99.90
31967;DHT22;18496;52.042;6.812;2022-10-28T13:45:43;23.70;99.90
31967;DHT22;18496;52.042;6.812;2022-10-28T13:47:46;23.70;99.80
31967;DHT22;18496;52.042;6.812;2022-10-28T13:52:18;23.70;99.90
31967;DHT22;18496;52.042;6.812;2022-10-28T13:54:26;23.70;99.90
31967;DHT22;18496;52.042;6.812;2022-10-28T13:56:31;23.70;99.90
31967;DHT22;18496;52.042;6.812;2022-10-28T13:58:36;23.70;99.90
31967;DHT22;18496;52.042;6.812;2022-10-28T14:00:40;23.70;99.90
31967;DHT22;18496;52.042;6.812;2022-10-28T14:02:48;23.80;99.90
31967;DHT22;18496;52.042;6.812;2022-10-28T14:04:52;23.80;99.90
31967;DHT22;18496;52.042;6.812;2022-10-28T14:07:04;23.70;99.90
31967;DHT22;18496;52.042;6.812;2022-10-28T14:09:17;23.70;99.90
31967;DHT22;18496;52.042;6.812;2022-10-28T14:11:22;23.70;99.90
31967;DHT22;18496;52.042;6.812;2022-10-28T14:13:26;23.70;99.90
31967;DHT22;18496;52.042;6.812;2022-10-28T14:15:34;23.70;99.90
31967;DHT22;18496;52.042;6.812;2022-10-28T14:17:39;23.60;99.90
31967;DHT22;18496;52.042;6.812;2022-10-28T14:19:47;23.60;99.90
31967;DHT22;18496;52.042;6.812;2022-10-28T14:21:59;23.60;99.90
31967;DHT22;18496;52.042;6.812;2022-10-28T14:26:06;23.60;99.90
31967;DHT22;18496;52.042;6.812;2022-10-28T14:30:32;23.50;99.90
31967;DHT22;18496;52.042;6.812;2022-10-28T14:34:51;23.50;99.90
31967;DHT22;18496;52.042;6.812;2022-10-28T14:37:11;23.50;99.90
31967;DHT22;18496;52.042;6.812;2022-10-28T14:46:09;23.30;99.90
31967;DHT22;18496;52.042;6.812;2022-10-28T14:50:39;23.20;99.90
31967;DHT22;18496;52.042;6.812;2022-10-28T14:52:44;23.20;99.90
31967;DHT22;18496;52.042;6.812;2022-10-28T14:54:50;23.20;99.90
31967;DHT22;18496;52.042;6.812;2022-10-28T14:56:55;23.20;99.90
31967;DHT22;18496;52.042;6.812;2022-10-28T14:59:03;23.20;99.90
31967;DHT22;18496;52.042;6.812;2022-10-28T15:03:20;23.20;99.90
31967;DHT22;18496;52.042;6.812;2022-10-28T15:05:26;23.20;99.90
31967;DHT22;18496;52.042;6.812;2022-10-28T15:07:32;23.20;99.90
31967;DHT22;18496;52.042;6.812;2022-10-28T15:09:36;23.20;99.90
31967;DHT22;18496;52.042;6.812;2022-10-28T15:11:43;23.20;99.90
31967;DHT22;18496;52.042;6.812;2022-10-28T15:13:48;23.10;99.90
31967;DHT22;18496;52.042;6.812;2022-10-28T15:15:54;23.10;99.90
31967;DHT22;18496;52.042;6.812;2022-10-28T15:17:58;23.10;99.90
31967;DHT22;18496;52.042;6.812;2022-10-28T15:20:09;23.10;99.90
31967;DHT22;18496;52.042;6.812;2022-10-28T15:22:16;23.00;99.90
31967;DHT22;18496;52.042;6.812;2022-10-28T15:24:19;23.00;99.90
31967;DHT22;18496;52.042;6.812;2022-10-28T15:26:23;23.00;99.90
31967;DHT22;18496;52.042;6.812;2022-10-28T15:28:27;23.00;99.90
31967;DHT22;18496;52.042;6.812;2022-10-28T15:30:30;23.00;99.90
31967;DHT22;18496;52.042;6.812;2022-10-28T15:32:34;23.00;99.90
31967;DHT22;18496;52.042;6.812;2022-10-28T15:34:38;23.00;99.90
31967;DHT22;18496;52.042;6.812;2022-10-28T15:36:45;23.00;99.90
31967;DHT22;18496;52.042;6.812;2022-10-28T15:39:14;23.00;99.90